Time;durP1;ratioP1;P1;durP2;ratioP2;P2;SDS_P1;SDS_P2;PMS_P1;PMS_P2;Temp;Humidity;BMP_temperature;BMP_pressure;BME280_temperature;BME280_humidity;BME280_pressure;Samples;Min_cycle;Max_cycle;Signal;HPM_P1;HPM_P2
2021/05/15 00:00:11;;;;;;;33.70;16.10;;;8.60;98.20;;;;;;5066753;28;20021;-71
2021/05/15 00:02:38;;;;;;;35.75;16.10;;;8.60;98.20;;;;;;5061261;28;20032;-71
2021/05/15 00:05:07;;;;;;;28.58;15.10;;;8.70;98.20;;;;;;5062864;28;20028;-71
2021/05/15 00:07:33;;;;;;;25.50;13.98;;;8.70;98.20;;;;;;5064172;28;20118;-71
2021/05/15 00:09:59;;;;;;;28.75;14.27;;;8.70;98.20;;;;;;5063169;28;20440;-71
2021/05/15 00:12:25;;;;;;;24.33;13.48;;;8.70;98.20;;;;;;5061381;28;20644;-71
2021/05/15 00:14:51;;;;;;;25.15;14.32;;;8.80;98.30;;;;;;5047339;28;20064;-71
2021/05/15 00:17:17;;;;;;;25.35;14.23;;;8.80;98.30;;;;;;5065876;28;20034;-70
2021/05/15 00:19:43;;;;;;;27.27;14.85;;;8.80;98.20;;;;;;5066834;28;20028;-70
2021/05/15 00:22:09;;;;;;;27.48;14.45;;;8.80;98.40;;;;;;5061487;28;20039;-70
2021/05/15 00:24:34;;;;;;;30.70;16.83;;;8.80;98.20;;;;;;5062499;28;20471;-70
2021/05/15 00:27:00;;;;;;;30.25;17.02;;;8.80;98.20;;;;;;5064375;28;20486;-71
2021/05/15 00:29:26;;;;;;;34.53;17.60;;;8.80;98.10;;;;;;5067291;28;20494;-71
2021/05/15 00:31:52;;;;;;;30.98;15.40;;;8.80;98.10;;;;;;5063341;28;20209;-70
2021/05/15 00:34:17;;;;;;;27.50;14.93;;;8.80;98.20;;;;;;5063879;28;20112;-70
2021/05/15 00:36:43;;;;;;;34.72;16.50;;;8.80;98.20;;;;;;5060483;28;20103;-70
2021/05/15 00:39:09;;;;;;;31.98;16.42;;;8.80;98.10;;;;;;5059858;28;20028;-71
2021/05/15 00:41:37;;;;;;;35.78;16.85;;;8.80;98.10;;;;;;5062015;28;20566;-70
2021/05/15 00:44:29;;;;;;;38.85;18.02;;;8.80;98.10;;;;;;5060753;28;20467;-70
2021/05/15 00:46:54;;;;;;;39.83;17.90;;;8.80;98.10;;;;;;5065912;28;20142;-71
2021/05/15 00:49:20;;;;;;;35.30;17.90;;;8.90;97.80;;;;;;5065345;28;20549;-70
2021/05/15 00:51:46;;;;;;;35.63;16.67;;;8.80;97.80;;;;;;5063095;28;20098;-71
2021/05/15 00:54:12;;;;;;;31.65;15.50;;;8.80;97.90;;;;;;5065756;28;20020;-71
2021/05/15 00:56:39;;;;;;;30.70;14.90;;;8.80;97.90;;;;;;5066333;28;20040;-71
2021/05/15 00:59:06;;;;;;;30.42;16.42;;;8.80;97.90;;;;;;5058098;28;20037;-71
2021/05/15 01:01:32;;;;;;;30.65;14.65;;;8.90;98.00;;;;;;5059806;28;20044;-70
2021/05/15 01:03:57;;;;;;;28.70;15.93;;;8.90;98.00;;;;;;5065063;28;20403;-72
2021/05/15 01:06:24;;;;;;;27.38;14.35;;;8.90;98.00;;;;;;5060967;28;20059;-71
2021/05/15 01:08:49;;;;;;;27.27;14.65;;;8.90;98.00;;;;;;5062525;28;20032;-70
2021/05/15 01:11:18;;;;;;;30.52;15.13;;;8.90;97.90;;;;;;5061541;28;20158;-71
2021/05/15 01:13:57;;;;;;;29.95;15.15;;;8.90;98.00;;;;;;5066295;28;20519;-71
2021/05/15 01:16:23;;;;;;;29.75;14.57;;;8.90;97.90;;;;;;5059944;28;20039;-71
2021/05/15 01:18:49;;;;;;;26.77;14.20;;;8.90;97.90;;;;;;5059818;28;20071;-71
2021/05/15 01:21:15;;;;;;;26.52;14.20;;;8.90;97.90;;;;;;5045774;28;20036;-73
2021/05/15 01:23:41;;;;;;;35.08;15.68;;;9.00;97.90;;;;;;5049638;28;20394;-72
2021/05/15 01:26:17;;;;;;;28.02;15.23;;;9.00;97.90;;;;;;5059399;28;20391;-70
2021/05/15 01:28:43;;;;;;;29.42;15.60;;;8.90;97.90;;;;;;5064056;28;20032;-71
2021/05/15 01:31:11;;;;;;;32.20;15.85;;;9.00;97.90;;;;;;5063258;28;20095;-71
2021/05/15 01:33:37;;;;;;;28.05;15.98;;;9.00;97.90;;;;;;5061708;28;20104;-71
2021/05/15 01:36:04;;;;;;;35.95;17.50;;;9.00;97.80;;;;;;5057645;28;20558;-70
2021/05/15 01:38:29;;;;;;;33.20;16.77;;;8.90;97.80;;;;;;5060851;28;20016;-71
2021/05/15 01:41:07;;;;;;;32.67;16.02;;;9.00;97.80;;;;;;5065816;28;20093;-71
2021/05/15 01:43:34;;;;;;;33.08;16.55;;;9.00;97.80;;;;;;5062037;28;20029;-71
2021/05/15 01:46:00;;;;;;;32.33;17.13;;;8.90;97.60;;;;;;5063607;28;20538;-71
2021/05/15 01:48:26;;;;;;;36.38;18.45;;;8.90;97.80;;;;;;5060669;28;20028;-71
2021/05/15 01:51:02;;;;;;;31.05;16.05;;;8.90;97.60;;;;;;5064221;28;20029;-70
2021/05/15 01:53:31;;;;;;;35.40;15.80;;;8.90;97.60;;;;;;5056470;28;20032;-71
2021/05/15 01:55:58;;;;;;;34.63;17.10;;;8.90;97.50;;;;;;5059867;28;20064;-70
2021/05/15 01:58:24;;;;;;;29.50;16.08;;;8.90;97.40;;;;;;5058536;28;20040;-71
2021/05/15 02:00:50;;;;;;;40.53;18.52;;;8.90;97.50;;;;;;5061172;28;20111;-71
2021/05/15 02:03:16;;;;;;;33.22;14.35;;;8.90;97.30;;;;;;5063924;28;20025;-70
2021/05/15 02:05:42;;;;;;;32.58;15.55;;;8.90;97.30;;;;;;5064413;28;20039;-71
2021/05/15 02:08:10;;;;;;;31.55;16.08;;;8.90;97.20;;;;;;5061817;28;20047;-71
2021/05/15 02:10:36;;;;;;;37.20;17.15;;;8.90;97.20;;;;;;5063493;28;20317;-71
2021/05/15 02:13:02;;;;;;;32.10;16.52;;;8.80;96.90;;;;;;5060767;28;20024;-71
2021/05/15 02:15:28;;;;;;;29.08;15.05;;;8.80;97.20;;;;;;5062908;28;21316;-71
2021/05/15 02:17:54;;;;;;;33.42;17.25;;;8.80;97.20;;;;;;5060029;28;20056;-71
2021/05/15 02:20:19;;;;;;;36.70;16.40;;;8.90;97.20;;;;;;5059596;28;20096;-70
2021/05/15 02:22:45;;;;;;;28.38;15.88;;;8.90;97.40;;;;;;5059089;28;20032;-71
2021/05/15 02:25:11;;;;;;;34.20;17.58;;;8.90;97.20;;;;;;5059390;28;20025;-71
2021/05/15 02:27:37;;;;;;;29.45;14.77;;;8.90;96.80;;;;;;5057520;28;20058;-70
2021/05/15 02:30:03;;;;;;;27.63;13.68;;;8.80;97.00;;;;;;5059199;28;20029;-70
2021/05/15 02:32:29;;;;;;;28.45;15.85;;;8.90;97.10;;;;;;5057020;28;20040;-71
2021/05/15 02:34:54;;;;;;;24.65;14.57;;;8.90;97.10;;;;;;5063898;28;20029;-70
2021/05/15 02:37:20;;;;;;;23.25;13.27;;;8.90;97.20;;;;;;5058194;28;20524;-71
2021/05/15 02:39:46;;;;;;;27.38;14.20;;;8.90;97.20;;;;;;5064258;28;20040;-71
2021/05/15 02:42:12;;;;;;;23.38;13.57;;;8.90;97.20;;;;;;5059515;28;20030;-71
2021/05/15 02:44:38;;;;;;;26.45;15.25;;;8.90;97.20;;;;;;5058802;28;20048;-71
2021/05/15 02:47:04;;;;;;;30.42;15.40;;;8.90;97.10;;;;;;5057324;28;20079;-71
2021/05/15 02:49:30;;;;;;;28.30;14.52;;;8.90;97.10;;;;;;5058703;28;20024;-71
2021/05/15 02:51:55;;;;;;;31.00;15.52;;;8.90;97.10;;;;;;5057803;28;20028;-70
2021/05/15 02:54:21;;;;;;;27.00;15.05;;;8.90;97.10;;;;;;5059742;28;20474;-70
2021/05/15 02:56:47;;;;;;;27.60;14.82;;;8.90;97.20;;;;;;5058311;28;20064;-71
2021/05/15 02:59:13;;;;;;;28.95;14.23;;;8.90;97.20;;;;;;5063043;28;20134;-71
2021/05/15 03:01:38;;;;;;;28.88;16.20;;;8.90;97.10;;;;;;5057323;28;20032;-71
2021/05/15 03:04:04;;;;;;;29.08;15.07;;;8.90;97.10;;;;;;5062622;28;20027;-71
2021/05/15 03:06:30;;;;;;;32.13;15.02;;;8.90;97.20;;;;;;5059088;28;20021;-70
2021/05/15 03:08:55;;;;;;;27.48;14.82;;;8.90;97.20;;;;;;5067936;28;20056;-71
2021/05/15 03:11:21;;;;;;;26.13;14.15;;;9.00;97.20;;;;;;5066046;28;20037;-71
2021/05/15 03:13:47;;;;;;;26.10;14.75;;;9.00;97.10;;;;;;5060132;28;20032;-71
2021/05/15 03:16:12;;;;;;;29.77;16.05;;;9.00;97.10;;;;;;5062647;28;20036;-70
2021/05/15 03:18:38;;;;;;;30.90;15.77;;;9.00;97.00;;;;;;5056335;28;20033;-70
2021/05/15 03:21:04;;;;;;;30.63;14.55;;;9.00;97.10;;;;;;5043170;28;20191;-71
2021/05/15 03:23:30;;;;;;;25.30;14.35;;;8.90;97.10;;;;;;5055965;28;20111;-71
2021/05/15 03:25:55;;;;;;;25.70;14.20;;;8.90;97.10;;;;;;5058501;28;20390;-70
2021/05/15 03:28:21;;;;;;;30.83;15.43;;;8.90;97.00;;;;;;5063894;28;20033;-70
2021/05/15 03:30:47;;;;;;;28.65;14.75;;;9.00;97.10;;;;;;5058998;28;20391;-70
2021/05/15 03:33:12;;;;;;;23.10;12.82;;;9.00;97.10;;;;;;5060753;28;20115;-70
2021/05/15 03:35:38;;;;;;;26.15;13.70;;;9.00;97.10;;;;;;5058940;28;20453;-70
2021/05/15 03:38:04;;;;;;;28.83;15.40;;;9.00;97.10;;;;;;5056976;28;20041;-72
2021/05/15 03:40:29;;;;;;;24.60;12.77;;;9.00;97.20;;;;;;5062357;28;20032;-70
2021/05/15 03:42:56;;;;;;;25.95;13.68;;;9.00;97.20;;;;;;5068017;28;20032;-70
2021/05/15 03:45:23;;;;;;;33.90;16.42;;;9.00;97.10;;;;;;5064228;28;20108;-71
2021/05/15 03:47:49;;;;;;;26.48;14.40;;;9.00;96.80;;;;;;5059083;28;20040;-71
2021/05/15 03:50:14;;;;;;;27.15;14.65;;;9.00;96.90;;;;;;5058168;28;20037;-71
2021/05/15 03:52:40;;;;;;;23.20;13.65;;;9.00;96.90;;;;;;5058230;28;20033;-71
2021/05/15 03:55:07;;;;;;;22.23;13.63;;;9.00;97.00;;;;;;5056347;28;20029;-71
2021/05/15 03:57:32;;;;;;;24.23;13.85;;;9.00;97.10;;;;;;5062105;28;20033;-70
2021/05/15 03:59:58;;;;;;;24.73;13.35;;;9.00;97.10;;;;;;5059721;28;20043;-71
2021/05/15 04:02:24;;;;;;;28.45;15.57;;;9.00;97.10;;;;;;5059605;28;20430;-69
2021/05/15 04:04:51;;;;;;;27.40;14.23;;;9.00;97.10;;;;;;5055864;28;20036;-71
2021/05/15 04:07:17;;;;;;;39.00;17.83;;;9.00;97.10;;;;;;5058380;28;20047;-70
2021/05/15 04:09:43;;;;;;;28.33;14.65;;;9.00;97.00;;;;;;5058730;28;20025;-71
2021/05/15 04:12:10;;;;;;;29.90;14.85;;;9.00;97.00;;;;;;5050842;28;20036;-71
2021/05/15 04:14:43;;;;;;;34.20;17.17;;;9.10;97.10;;;;;;5058837;28;20098;-71
2021/05/15 04:19:35;;;;;;;30.42;16.15;;;9.10;95.90;;;;;;5056411;28;20079;-71
2021/05/15 04:22:04;;;;;;;27.33;14.40;;;9.10;96.30;;;;;;5055362;28;20110;-70
2021/05/15 04:24:30;;;;;;;33.33;17.23;;;9.10;96.50;;;;;;5061747;28;20093;-71
2021/05/15 04:26:58;;;;;;;28.48;15.80;;;9.10;96.60;;;;;;5061933;28;20429;-71
2021/05/15 04:29:25;;;;;;;30.88;16.58;;;9.10;96.60;;;;;;5058427;28;20037;-71
2021/05/15 04:31:54;;;;;;;28.70;15.98;;;9.00;96.50;;;;;;5058360;28;20055;-70
2021/05/15 04:34:20;;;;;;;32.38;15.38;;;9.10;96.60;;;;;;5057775;28;20120;-71
2021/05/15 04:36:46;;;;;;;30.35;15.38;;;9.10;96.60;;;;;;5056673;28;20037;-71
2021/05/15 04:39:12;;;;;;;23.80;13.75;;;9.10;96.70;;;;;;5059506;28;20036;-71
2021/05/15 04:41:38;;;;;;;29.90;15.27;;;9.00;96.70;;;;;;5059582;28;20039;-71
2021/05/15 04:44:04;;;;;;;31.58;15.10;;;9.10;96.80;;;;;;5057106;28;20028;-69
2021/05/15 04:46:29;;;;;;;34.92;17.08;;;9.10;96.80;;;;;;5060433;28;20478;-71
2021/05/15 04:48:55;;;;;;;33.80;16.95;;;9.10;96.80;;;;;;5062340;28;20036;-71
2021/05/15 04:51:21;;;;;;;30.95;17.20;;;9.10;96.80;;;;;;5064132;28;20028;-71
2021/05/15 04:53:47;;;;;;;30.50;15.60;;;9.10;96.80;;;;;;5067632;28;20027;-71
2021/05/15 04:56:14;;;;;;;25.23;14.45;;;9.20;96.90;;;;;;5039473;28;20115;-70
2021/05/15 04:58:40;;;;;;;28.05;15.43;;;9.20;96.90;;;;;;5064588;28;20230;-70
2021/05/15 05:01:06;;;;;;;29.40;14.98;;;9.20;97.00;;;;;;5060841;28;20105;-70
2021/05/15 05:03:32;;;;;;;28.80;15.30;;;9.20;97.00;;;;;;5061826;28;20032;-71
2021/05/15 05:05:57;;;;;;;33.92;17.92;;;9.30;97.00;;;;;;5059288;28;20033;-71
2021/05/15 05:08:26;;;;;;;37.33;18.23;;;9.20;96.90;;;;;;5061223;28;20490;-70
2021/05/15 05:10:53;;;;;;;28.60;15.48;;;9.20;96.70;;;;;;5065033;28;20487;-71
2021/05/15 05:13:19;;;;;;;26.42;14.30;;;9.30;96.80;;;;;;5059102;28;20029;-70
2021/05/15 05:15:45;;;;;;;27.00;15.90;;;9.30;96.90;;;;;;5061132;28;20035;-71
2021/05/15 05:18:11;;;;;;;33.40;18.48;;;9.30;96.90;;;;;;5068663;28;20398;-70
2021/05/15 05:20:37;;;;;;;33.58;18.27;;;9.30;96.70;;;;;;5060744;28;20028;-70
2021/05/15 05:23:03;;;;;;;37.95;17.50;;;9.30;96.60;;;;;;5061783;28;20032;-71
2021/05/15 05:25:29;;;;;;;30.95;15.95;;;9.30;96.40;;;;;;5062339;28;20452;-71
2021/05/15 05:27:55;;;;;;;27.85;14.82;;;9.30;96.50;;;;;;5072611;28;20103;-71
2021/05/15 05:30:21;;;;;;;29.90;15.60;;;9.30;96.60;;;;;;5062848;28;20033;-71
2021/05/15 05:32:49;;;;;;;30.77;16.02;;;9.30;96.60;;;;;;5064863;28;20086;-71
2021/05/15 05:35:15;;;;;;;29.08;15.07;;;9.30;96.50;;;;;;5063141;28;20064;-72
2021/05/15 05:37:41;;;;;;;29.23;14.07;;;9.30;95.80;;;;;;5064512;28;20016;-71
2021/05/15 05:40:10;;;;;;;25.48;14.05;;;9.30;95.90;;;;;;5064546;28;20036;-71
2021/05/15 05:42:37;;;;;;;30.48;14.68;;;9.30;95.90;;;;;;5061590;28;20048;-71
2021/05/15 05:45:04;;;;;;;29.88;14.48;;;9.30;96.00;;;;;;5059244;28;20061;-71
2021/05/15 05:47:30;;;;;;;23.00;12.20;;;9.30;95.10;;;;;;5067725;28;20548;-71
2021/05/15 05:49:56;;;;;;;24.92;12.55;;;9.30;95.40;;;;;;5059765;28;20873;-71
2021/05/15 05:52:21;;;;;;;27.20;13.88;;;9.30;95.60;;;;;;5059768;28;20031;-72
2021/05/15 05:54:47;;;;;;;24.77;14.07;;;9.30;95.60;;;;;;5060757;28;20017;-72
2021/05/15 05:57:13;;;;;;;28.83;14.95;;;9.30;95.60;;;;;;5046281;28;20082;-71
2021/05/15 05:59:38;;;;;;;26.23;14.15;;;9.30;95.40;;;;;;5059400;28;20086;-71
2021/05/15 06:02:04;;;;;;;22.77;12.38;;;9.30;95.50;;;;;;5059256;28;20109;-70
2021/05/15 06:04:30;;;;;;;30.45;13.70;;;9.30;95.50;;;;;;5058651;28;20394;-72
2021/05/15 06:06:56;;;;;;;28.17;13.63;;;9.30;95.40;;;;;;5060231;28;20040;-71
2021/05/15 06:09:22;;;;;;;23.33;12.05;;;9.30;95.30;;;;;;5059269;28;20533;-72
2021/05/15 06:11:47;;;;;;;22.98;14.23;;;9.30;95.30;;;;;;5068993;28;20028;-71
2021/05/15 06:14:13;;;;;;;26.77;14.07;;;9.30;95.30;;;;;;5061021;28;20467;-72
2021/05/15 06:16:39;;;;;;;23.80;13.40;;;9.30;95.40;;;;;;5060195;28;20036;-70
2021/05/15 06:19:05;;;;;;;26.77;12.57;;;9.40;95.50;;;;;;5048564;28;20383;-71
2021/05/15 06:21:30;;;;;;;29.90;14.25;;;9.40;95.60;;;;;;5060382;28;20033;-70
2021/05/15 06:23:56;;;;;;;27.73;13.82;;;9.40;94.80;;;;;;5060910;28;20058;-69
2021/05/15 06:26:22;;;;;;;28.98;14.02;;;9.40;95.00;;;;;;5060806;28;20039;-69
2021/05/15 06:28:48;;;;;;;27.95;13.43;;;9.40;95.20;;;;;;5061282;28;20028;-73
2021/05/15 06:31:14;;;;;;;25.90;13.10;;;9.40;95.20;;;;;;5060812;28;20493;-71
2021/05/15 06:33:39;;;;;;;28.23;14.85;;;9.40;95.40;;;;;;5060221;28;20663;-71
2021/05/15 06:36:05;;;;;;;23.08;12.18;;;9.40;95.30;;;;;;5059376;28;20037;-71
2021/05/15 06:38:31;;;;;;;21.33;11.65;;;9.50;95.50;;;;;;5059473;28;20039;-71
2021/05/15 06:40:57;;;;;;;18.27;11.50;;;9.50;95.60;;;;;;5068571;28;20108;-71
2021/05/15 06:43:22;;;;;;;20.35;11.55;;;9.50;95.70;;;;;;5059057;28;20028;-72
2021/05/15 06:45:48;;;;;;;19.30;10.48;;;9.60;95.80;;;;;;5042013;28;20033;-69
2021/05/15 06:48:14;;;;;;;19.77;11.02;;;9.60;95.80;;;;;;5060754;28;20021;-70
2021/05/15 06:50:40;;;;;;;21.95;12.18;;;9.60;95.80;;;;;;5060992;28;20025;-71
2021/05/15 06:53:06;;;;;;;20.95;12.52;;;9.70;95.60;;;;;;5059336;28;20024;-71
2021/05/15 06:55:32;;;;;;;28.88;12.95;;;9.60;95.30;;;;;;5062936;28;20052;-70
2021/05/15 06:57:58;;;;;;;35.72;13.88;;;9.60;95.30;;;;;;5059414;28;20100;-69
2021/05/15 07:00:23;;;;;;;24.52;13.00;;;9.60;95.20;;;;;;5060451;28;20033;-70
2021/05/15 07:02:50;;;;;;;25.67;12.70;;;9.70;95.40;;;;;;5060570;28;20543;-70
2021/05/15 07:05:17;;;;;;;22.02;12.38;;;9.70;95.00;;;;;;5066778;28;20478;-71
2021/05/15 07:07:43;;;;;;;17.38;10.63;;;9.70;94.80;;;;;;5057959;28;20033;-71
2021/05/15 07:10:09;;;;;;;24.73;14.15;;;9.70;95.00;;;;;;5064106;28;20090;-71
2021/05/15 07:12:35;;;;;;;20.73;12.40;;;9.80;94.90;;;;;;5057705;28;20025;-71
2021/05/15 07:15:00;;;;;;;21.65;11.93;;;9.80;93.20;;;;;;5058817;28;20407;-71
2021/05/15 07:17:26;;;;;;;22.80;13.05;;;9.80;93.80;;;;;;5063333;28;20075;-71
2021/05/15 07:19:53;;;;;;;26.10;13.85;;;9.80;94.30;;;;;;5064692;28;20036;-71
2021/05/15 07:22:24;;;;;;;18.67;10.98;;;9.80;94.10;;;;;;5058629;28;20044;-71
2021/05/15 07:24:51;;;;;;;24.67;12.85;;;9.90;94.60;;;;;;5064778;28;20032;-71
2021/05/15 07:27:17;;;;;;;20.02;11.88;;;10.00;94.70;;;;;;5062015;28;20454;-70
2021/05/15 07:29:43;;;;;;;25.00;12.00;;;10.00;94.50;;;;;;5057109;28;20032;-70
2021/05/15 07:32:09;;;;;;;23.73;12.55;;;10.10;94.60;;;;;;5041166;28;20563;-72
2021/05/15 07:34:34;;;;;;;21.40;12.25;;;10.10;93.90;;;;;;5061732;28;20033;-71
2021/05/15 07:37:00;;;;;;;22.60;12.32;;;10.10;94.20;;;;;;5063030;28;20503;-71
2021/05/15 07:39:26;;;;;;;24.73;12.38;;;10.20;94.20;;;;;;5058742;28;20926;-71
2021/05/15 07:41:52;;;;;;;28.23;13.23;;;10.20;93.60;;;;;;5057267;28;20032;-72
2021/05/15 07:44:19;;;;;;;20.55;12.20;;;10.20;94.00;;;;;;5053348;28;20032;-72
2021/05/15 07:46:45;;;;;;;20.60;13.15;;;10.10;94.10;;;;;;5059012;28;20032;-72
2021/05/15 07:49:11;;;;;;;21.00;11.73;;;10.20;94.40;;;;;;5057634;28;20029;-72
2021/05/15 07:51:36;;;;;;;17.17;10.48;;;10.20;94.80;;;;;;5058921;28;20021;-72
2021/05/15 07:54:03;;;;;;;17.85;11.02;;;10.30;95.00;;;;;;5057787;28;20040;-73
2021/05/15 07:56:29;;;;;;;22.60;13.70;;;10.40;95.20;;;;;;5063933;28;20411;-73
2021/05/15 07:58:55;;;;;;;19.10;11.65;;;10.40;94.50;;;;;;5059152;28;20039;-72
2021/05/15 08:01:21;;;;;;;28.25;14.43;;;10.40;94.60;;;;;;5057043;28;20025;-71
2021/05/15 08:03:46;;;;;;;20.58;11.80;;;10.50;93.90;;;;;;5060325;28;20032;-71
2021/05/15 08:06:12;;;;;;;19.73;11.93;;;10.60;94.10;;;;;;5057031;28;20028;-71
2021/05/15 08:08:38;;;;;;;18.55;10.82;;;10.60;94.30;;;;;;5062975;28;20021;-72
2021/05/15 08:11:04;;;;;;;18.38;11.18;;;10.60;94.50;;;;;;5060013;28;20025;-72
2021/05/15 08:13:30;;;;;;;21.35;12.70;;;10.60;94.50;;;;;;5057559;28;20539;-72
2021/05/15 08:15:56;;;;;;;19.27;11.27;;;10.80;93.00;;;;;;5057826;28;20120;-73
2021/05/15 08:18:22;;;;;;;25.92;13.07;;;10.70;93.60;;;;;;5061554;28;20025;-72
2021/05/15 08:20:48;;;;;;;21.70;13.00;;;10.70;94.00;;;;;;5062794;28;20036;-72
2021/05/15 08:23:14;;;;;;;19.92;11.68;;;10.70;93.90;;;;;;5067661;28;20040;-74
2021/05/15 08:25:40;;;;;;;18.10;11.23;;;10.70;94.20;;;;;;5073935;28;20902;-72
2021/05/15 08:28:11;;;;;;;19.05;11.20;;;10.70;94.20;;;;;;5059968;28;20021;-73
2021/05/15 08:30:38;;;;;;;23.50;12.90;;;10.70;94.30;;;;;;5072602;28;20897;-74
2021/05/15 08:33:04;;;;;;;23.98;12.65;;;10.70;94.00;;;;;;5066152;28;20278;-72
2021/05/15 08:35:30;;;;;;;18.27;10.32;;;10.70;93.90;;;;;;5040689;28;20359;-72
2021/05/15 08:37:55;;;;;;;20.60;10.90;;;10.70;94.10;;;;;;5063189;28;20033;-74
2021/05/15 08:40:27;;;;;;;25.10;14.40;;;10.80;94.40;;;;;;5062171;28;20040;-74
2021/05/15 08:42:53;;;;;;;;;;;10.80;94.40;;;;;;5060232;28;20063;-72
2021/05/15 08:45:20;;;;;;;19.35;11.63;;;10.80;93.30;;;;;;5060745;28;20003;-76
2021/05/15 08:47:46;;;;;;;24.55;12.90;;;10.80;93.90;;;;;;5067279;28;20382;-74
2021/05/15 08:50:21;;;;;;;19.55;12.35;;;10.80;93.90;;;;;;5066640;28;20032;-73
2021/05/15 08:52:49;;;;;;;20.45;11.52;;;10.90;94.00;;;;;;5067673;28;20021;-72
2021/05/15 08:55:22;;;;;;;18.55;11.65;;;10.90;94.10;;;;;;5068638;28;20021;-73
2021/05/15 08:57:48;;;;;;;21.52;13.10;;;11.00;94.30;;;;;;5064649;28;20025;-72
2021/05/15 09:00:27;;;;;;;20.65;12.82;;;11.10;92.30;;;;;;5070142;28;20679;-74
2021/05/15 09:02:58;;;;;;;21.05;12.88;;;11.10;92.90;;;;;;5066486;28;20123;-72
2021/05/15 09:05:26;;;;;;;21.40;13.25;;;11.20;93.60;;;;;;5062337;28;20578;-72
2021/05/15 09:08:00;;;;;;;20.40;12.88;;;11.20;93.90;;;;;;5061387;28;20029;-71
2021/05/15 09:10:29;;;;;;;23.35;13.90;;;11.30;94.20;;;;;;5056993;28;20863;-74
2021/05/15 09:13:13;;;;;;;23.95;16.20;;;11.30;94.20;;;;;;5057623;28;20040;-71
2021/05/15 09:15:49;;;;;;;29.90;19.52;;;11.40;94.30;;;;;;5060814;28;20029;-71
2021/05/15 09:18:18;;;;;;;26.63;18.48;;;11.50;94.10;;;;;;5059668;28;20020;-70
2021/05/15 09:20:46;;;;;;;25.25;18.15;;;11.50;94.30;;;;;;5058550;28;20028;-71
2021/05/15 09:23:12;;;;;;;34.58;21.50;;;11.60;94.50;;;;;;5062963;28;20394;-71
2021/05/15 09:25:37;;;;;;;26.77;18.85;;;11.60;91.20;;;;;;5066432;28;20024;-71
2021/05/15 09:28:04;;;;;;;30.42;20.23;;;11.70;92.30;;;;;;5062192;28;20099;-70
2021/05/15 09:30:31;;;;;;;35.25;19.80;;;11.80;92.40;;;;;;5060932;28;20062;-71
2021/05/15 09:32:57;;;;;;;25.45;18.30;;;11.90;91.70;;;;;;5063027;28;20085;-71
2021/05/15 09:35:27;;;;;;;25.63;18.65;;;12.00;92.40;;;;;;5047431;28;20104;-71
2021/05/15 09:37:53;;;;;;;31.17;21.05;;;12.00;93.10;;;;;;5063662;28;20722;-71
2021/05/15 09:40:20;;;;;;;31.67;20.40;;;12.10;91.70;;;;;;5065996;28;20039;-71
2021/05/15 09:42:54;;;;;;;30.08;20.58;;;12.20;91.70;;;;;;5072958;28;20067;-71
2021/05/15 09:45:29;;;;;;;28.83;19.67;;;12.30;91.00;;;;;;5061152;28;20025;-71
2021/05/15 09:47:55;;;;;;;31.05;21.15;;;12.40;91.70;;;;;;5063160;28;20509;-71
2021/05/15 09:50:23;;;;;;;31.55;20.58;;;12.40;90.80;;;;;;5068482;28;20025;-72
2021/05/15 09:52:49;;;;;;;29.70;19.05;;;12.40;89.10;;;;;;5064287;28;20037;-72
2021/05/15 09:55:16;;;;;;;23.27;15.88;;;12.50;89.80;;;;;;5064872;28;20371;-71
2021/05/15 09:57:42;;;;;;;23.30;15.00;;;12.50;91.10;;;;;;5062185;28;20412;-72
2021/05/15 10:00:11;;;;;;;29.25;16.98;;;12.50;92.00;;;;;;5057413;28;20043;-71
2021/05/15 10:02:37;;;;;;;32.45;15.50;;;12.50;91.90;;;;;;5056266;28;20040;-71
2021/05/15 10:05:10;;;;;;;24.40;14.93;;;12.90;92.30;;;;;;5062331;28;20041;-72
2021/05/15 10:07:37;;;;;;;26.17;15.27;;;13.20;91.60;;;;;;5057104;28;20024;-72
2021/05/15 10:10:06;;;;;;;25.90;16.67;;;13.50;89.80;;;;;;5060783;28;20056;-72
2021/05/15 10:12:33;;;;;;;20.05;13.50;;;13.60;90.00;;;;;;5062829;28;20032;-72
2021/05/15 10:15:01;;;;;;;27.65;15.90;;;13.60;89.90;;;;;;5058526;28;20084;-72
2021/05/15 10:17:27;;;;;;;25.20;15.13;;;13.60;90.30;;;;;;5047443;28;20025;-71
2021/05/15 10:19:54;;;;;;;25.42;14.32;;;13.60;90.60;;;;;;5058357;28;20082;-71
2021/05/15 10:22:20;;;;;;;24.17;13.80;;;13.60;89.90;;;;;;5047509;28;20036;-71
2021/05/15 10:24:48;;;;;;;21.52;13.00;;;13.70;90.40;;;;;;5060294;28;20043;-71
2021/05/15 10:27:16;;;;;;;25.73;14.48;;;13.80;90.70;;;;;;5058615;28;20471;-71
2021/05/15 10:29:53;;;;;;;24.08;14.95;;;13.80;86.20;;;;;;5060008;28;20091;-70
2021/05/15 10:32:21;;;;;;;25.83;13.70;;;13.90;83.70;;;;;;5060326;28;20029;-69
2021/05/15 10:34:56;;;;;;;24.60;15.45;;;13.90;87.10;;;;;;5060581;28;20029;-71
2021/05/15 10:37:22;;;;;;;21.08;13.88;;;14.00;87.60;;;;;;5065439;28;20029;-72
2021/05/15 10:39:49;;;;;;;26.02;14.65;;;14.20;89.80;;;;;;5066003;28;20063;-71
2021/05/15 10:42:26;;;;;;;23.73;13.85;;;14.20;89.50;;;;;;5059515;28;20029;-70
2021/05/15 10:44:52;;;;;;;27.08;14.20;;;14.30;88.70;;;;;;5059545;28;20116;-70
2021/05/15 10:47:21;;;;;;;23.73;13.95;;;14.30;86.70;;;;;;5068956;28;20041;-70
2021/05/15 10:49:47;;;;;;;24.13;13.82;;;14.40;81.60;;;;;;5060936;28;20116;-71
2021/05/15 10:52:18;;;;;;;25.52;13.70;;;14.30;83.50;;;;;;5054585;28;20028;-71
2021/05/15 10:54:44;;;;;;;23.00;13.10;;;14.40;81.60;;;;;;5058782;28;20521;-70
2021/05/15 10:57:15;;;;;;;20.45;11.48;;;14.30;84.00;;;;;;5060424;28;20033;-71
2021/05/15 10:59:54;;;;;;;23.15;13.27;;;14.20;86.20;;;;;;5060897;28;20671;-70
2021/05/15 11:02:21;;;;;;;22.20;13.98;;;14.10;83.40;;;;;;5057186;28;20032;-69
2021/05/15 11:04:51;;;;;;;23.95;13.50;;;14.00;86.00;;;;;;5063361;28;20028;-69
2021/05/15 11:07:32;;;;;;;25.47;14.30;;;13.90;85.80;;;;;;5061996;28;20499;-70
2021/05/15 11:10:05;;;;;;;29.83;14.82;;;13.80;86.10;;;;;;5054113;28;20021;-69
2021/05/15 11:12:51;;;;;;;26.40;14.18;;;13.80;85.40;;;;;;5057152;28;20050;-69
2021/05/15 11:15:18;;;;;;;28.88;14.05;;;13.90;88.80;;;;;;5062766;28;20031;-69
2021/05/15 11:17:58;;;;;;;23.77;13.70;;;14.00;86.80;;;;;;5058726;28;20387;-70
2021/05/15 11:20:24;;;;;;;23.55;12.82;;;14.30;87.10;;;;;;5059269;28;20033;-70
2021/05/15 11:22:54;;;;;;;21.38;11.57;;;15.00;88.20;;;;;;5058647;28;20491;-70
2021/05/15 11:25:27;;;;;;;18.17;11.82;;;16.40;87.20;;;;;;5055997;28;20033;-71
2021/05/15 11:27:57;;;;;;;21.58;11.95;;;17.90;81.60;;;;;;5064732;28;20057;-70
2021/05/15 11:30:31;;;;;;;21.60;11.70;;;18.80;79.50;;;;;;5061913;28;20036;-70
2021/05/15 11:33:07;;;;;;;20.67;11.50;;;19.70;73.60;;;;;;5062216;28;20077;-70
2021/05/15 11:35:44;;;;;;;17.35;11.90;;;20.00;71.00;;;;;;5057346;28;20025;-70
2021/05/15 11:38:16;;;;;;;17.77;11.95;;;19.80;70.90;;;;;;5055223;28;20039;-70
2021/05/15 11:40:51;;;;;;;16.88;10.32;;;19.80;72.70;;;;;;5062284;28;20410;-71
2021/05/15 11:43:19;;;;;;;14.68;9.88;;;19.80;72.60;;;;;;5055275;28;20033;-70
2021/05/15 11:45:45;;;;;;;18.25;10.70;;;20.00;74.40;;;;;;5056676;28;20097;-70
2021/05/15 11:48:20;;;;;;;18.15;11.23;;;19.90;73.80;;;;;;5059997;28;20108;-70
2021/05/15 11:50:58;;;;;;;17.58;11.35;;;19.90;73.80;;;;;;5055573;28;20029;-71
2021/05/15 11:53:24;;;;;;;18.95;10.77;;;20.40;72.80;;;;;;5059118;28;20024;-70
2021/05/15 11:55:53;;;;;;;16.08;10.32;;;20.60;69.40;;;;;;5059279;28;20029;-70
2021/05/15 11:58:19;;;;;;;17.48;10.60;;;20.10;70.10;;;;;;5061341;28;20078;-69
2021/05/15 12:00:46;;;;;;;15.32;10.32;;;19.40;70.30;;;;;;5057665;28;20029;-70
2021/05/15 12:03:12;;;;;;;20.45;11.32;;;18.70;74.30;;;;;;5062474;28;20021;-70
2021/05/15 12:05:38;;;;;;;16.63;10.50;;;18.10;75.50;;;;;;5061235;28;20032;-70
2021/05/15 12:08:12;;;;;;;20.65;11.82;;;17.60;76.30;;;;;;5059614;28;20032;-70
2021/05/15 12:10:40;;;;;;;23.65;12.68;;;17.20;76.30;;;;;;5059214;28;20025;-70
2021/05/15 12:13:06;;;;;;;14.98;9.95;;;16.80;77.80;;;;;;5057405;28;20029;-70
2021/05/15 12:15:35;;;;;;;17.42;10.52;;;16.50;80.20;;;;;;5057921;28;20021;-70
2021/05/15 12:18:02;;;;;;;18.70;11.10;;;16.30;81.40;;;;;;5059152;28;20394;-70
2021/05/15 12:20:39;;;;;;;18.65;12.35;;;16.30;83.40;;;;;;5059543;28;20032;-70
2021/05/15 12:23:06;;;;;;;18.92;11.07;;;16.20;82.80;;;;;;5054214;28;20161;-70
2021/05/15 12:25:32;;;;;;;16.25;9.32;;;16.00;84.20;;;;;;5059465;28;20496;-70
2021/05/15 12:27:58;;;;;;;15.85;9.60;;;15.80;85.70;;;;;;5061501;28;20152;-70
2021/05/15 12:30:25;;;;;;;15.63;9.95;;;15.60;86.20;;;;;;5058279;28;20100;-70
2021/05/15 12:33:02;;;;;;;16.13;9.95;;;15.40;86.20;;;;;;5057449;28;20025;-70
2021/05/15 12:35:27;;;;;;;19.58;10.80;;;15.20;87.00;;;;;;5057484;28;20021;-70